首页
METAR-TAF:

METAR-TAF

机场 :

佩尔, 比利时

纬度: 51-10N, 经度: 005-28E, 海拔: 55米

当前天气观测

该预报发布于25分钟前的20:55 UTC
风速13节,风向西南
温度 13°C
湿度 47%
气压 1002 hPa
能见度10公里或以上

METAR: EBBL 062055Z AUTO 23013KT 9999 FEW064/// BKN094/// 13/02 Q1002 BLU

时间: 23:20 (21:20 UTC)

预报

该预报发布于29小时和39分钟前的15:41 UTC
预报有效从05日的 19点(UTC)到 06日的 07点(UTC)
风速15节,风向西转西北,有时为25节阵风
能见度10公里或以上
散云层高于1500英尺, 塔状积云.
多云层高于4000英尺
短暂存在
从 05日的 19点(UTC)到 05日的 23点(UTC)
能見度: 6000
散云层高于1500英尺, 塔状积云.
多云层高于4000英尺
小阵雨
成为
从 06日的 01点(UTC)到 06日的 03点(UTC)
能见度10公里或以上
散云层高于4000英尺

TAF: EBBL 051541Z 0519/0607 30015G25KT 9999 SCT015TCU BKN040 TEMPO 0519/0523 6000 -SHRA SCT015TCU BKN040 BECMG 0601/0603 9999 SCT040

超过4000个机场的气象观测和天气预报(METAR&TAF报告)。

可查询的气象台以黄色和红色小点在地图上表示。

将鼠标移到小点上方,可查看气象台名称。

然后点击查看天气观测和预报。

如需切换地图:点击带黑十字的绿色按钮放大地图;点击带横线的绿色按钮缩小地图;或者点击绿色箭头查看邻近地区的地图。


METAR-TAF: